sensor_id;sensor_type;location;lat;lon;timestamp;pressure;altitude;pressure_sealevel;temperature;humidity
47154;BME280;32907;41.412;2.164;2022-12-24T00:01:32;100903.78;;;21.64;43.12
47154;BME280;32907;41.412;2.164;2022-12-24T00:04:00;100846.94;;;21.29;43.18
47154;BME280;32907;41.412;2.164;2022-12-24T00:06:29;100903.72;;;21.69;42.72
47154;BME280;32907;41.412;2.164;2022-12-24T00:08:56;100894.91;;;21.54;43.21
47154;BME280;32907;41.412;2.164;2022-12-24T00:11:25;100913.03;;;21.68;43.01
47154;BME280;32907;41.412;2.164;2022-12-24T00:13:52;100916.56;;;21.69;42.58
47154;BME280;32907;41.412;2.164;2022-12-24T00:16:20;100901.44;;;21.58;42.62
47154;BME280;32907;41.412;2.164;2022-12-24T00:18:48;100819.66;;;21.05;42.55
47154;BME280;32907;41.412;2.164;2022-12-24T00:21:16;100932.63;;;21.70;42.95
47154;BME280;32907;41.412;2.164;2022-12-24T00:23:44;100892.25;;;21.48;42.72
47154;BME280;32907;41.412;2.164;2022-12-24T00:26:12;100909.88;;;21.56;42.67
47154;BME280;32907;41.412;2.164;2022-12-24T00:28:41;100893.06;;;21.49;42.77
47154;BME280;32907;41.412;2.164;2022-12-24T00:31:11;100920.44;;;21.63;42.70
47154;BME280;32907;41.412;2.164;2022-12-24T00:33:40;100890.53;;;21.34;42.96
47154;BME280;32907;41.412;2.164;2022-12-24T00:36:08;100877.13;;;21.37;42.85
47154;BME280;32907;41.412;2.164;2022-12-24T00:38:36;100921.50;;;21.67;43.03
47154;BME280;32907;41.412;2.164;2022-12-24T00:41:06;100911.41;;;21.67;43.02
47154;BME280;32907;41.412;2.164;2022-12-24T00:43:58;100923.94;;;21.68;43.27
47154;BME280;32907;41.412;2.164;2022-12-24T00:46:28;100913.88;;;21.64;43.67
47154;BME280;32907;41.412;2.164;2022-12-24T00:48:57;100896.88;;;21.48;43.38
47154;BME280;32907;41.412;2.164;2022-12-24T00:51:25;100892.31;;;21.43;43.40
47154;BME280;32907;41.412;2.164;2022-12-24T00:53:53;100918.81;;;21.62;43.47
47154;BME280;32907;41.412;2.164;2022-12-24T00:56:22;100912.09;;;21.54;43.08
47154;BME280;32907;41.412;2.164;2022-12-24T00:58:50;100914.19;;;21.62;43.23
47154;BME280;32907;41.412;2.164;2022-12-24T01:01:20;100850.50;;;21.24;43.24
47154;BME280;32907;41.412;2.164;2022-12-24T01:03:48;100916.41;;;21.60;42.75
47154;BME280;32907;41.412;2.164;2022-12-24T01:06:20;100887.97;;;21.42;42.71
47154;BME280;32907;41.412;2.164;2022-12-24T01:08:51;100903.81;;;21.40;43.30
47154;BME280;32907;41.412;2.164;2022-12-24T01:11:19;100883.72;;;21.31;43.36
47154;BME280;32907;41.412;2.164;2022-12-24T01:13:47;100918.38;;;21.55;43.20
47154;BME280;32907;41.412;2.164;2022-12-24T01:16:18;100922.66;;;21.61;42.93
47154;BME280;32907;41.412;2.164;2022-12-24T01:18:46;100910.47;;;21.53;42.99
47154;BME280;32907;41.412;2.164;2022-12-24T01:21:15;100923.78;;;21.60;43.01
47154;BME280;32907;41.412;2.164;2022-12-24T01:23:43;100927.88;;;21.57;42.83
47154;BME280;32907;41.412;2.164;2022-12-24T01:26:11;100822.50;;;20.94;42.79
47154;BME280;32907;41.412;2.164;2022-12-24T01:28:40;100880.50;;;21.24;43.08
47154;BME280;32907;41.412;2.164;2022-12-24T01:31:17;100871.81;;;21.22;42.37
47154;BME280;32907;41.412;2.164;2022-12-24T01:33:47;100931.78;;;21.51;42.79
47154;BME280;32907;41.412;2.164;2022-12-24T01:36:15;100894.34;;;21.33;42.64
47154;BME280;32907;41.412;2.164;2022-12-24T01:38:43;100868.09;;;21.13;42.85
47154;BME280;32907;41.412;2.164;2022-12-24T01:41:21;100906.06;;;21.33;42.38
47154;BME280;32907;41.412;2.164;2022-12-24T01:44:29;100919.31;;;21.45;42.97
47154;BME280;32907;41.412;2.164;2022-12-24T01:47:26;100922.84;;;21.45;42.89
47154;BME280;32907;41.412;2.164;2022-12-24T01:49:59;100844.88;;;20.91;43.31
47154;BME280;32907;41.412;2.164;2022-12-24T01:52:34;100868.91;;;21.13;43.02
47154;BME280;32907;41.412;2.164;2022-12-24T01:55:07;100898.78;;;21.29;42.93
47154;BME280;32907;41.412;2.164;2022-12-24T01:57:52;100928.81;;;21.47;42.93
47154;BME280;32907;41.412;2.164;2022-12-24T02:00:21;100914.44;;;21.42;43.22
47154;BME280;32907;41.412;2.164;2022-12-24T02:02:51;100872.16;;;21.15;43.07
47154;BME280;32907;41.412;2.164;2022-12-24T02:08:07;100921.28;;;21.39;43.08
47154;BME280;32907;41.412;2.164;2022-12-24T02:10:35;100927.78;;;21.43;42.95
47154;BME280;32907;41.412;2.164;2022-12-24T02:13:04;100931.63;;;21.42;43.16
47154;BME280;32907;41.412;2.164;2022-12-24T02:34:18;100908.28;;;21.31;43.34
47154;BME280;32907;41.412;2.164;2022-12-24T02:37:09;100897.66;;;21.30;43.18
47154;BME280;32907;41.412;2.164;2022-12-24T02:39:48;100864.94;;;21.01;43.31
47154;BME280;32907;41.412;2.164;2022-12-24T02:42:24;100931.63;;;21.42;43.36
47154;BME280;32907;41.412;2.164;2022-12-24T02:45:03;100928.59;;;21.44;43.28
47154;BME280;32907;41.412;2.164;2022-12-24T02:47:33;100896.34;;;21.22;42.89
47154;BME280;32907;41.412;2.164;2022-12-24T02:50:03;100924.25;;;21.43;43.18
47154;BME280;32907;41.412;2.164;2022-12-24T02:52:35;100920.72;;;21.42;43.16
47154;BME280;32907;41.412;2.164;2022-12-24T03:00:31;100892.81;;;21.21;42.86
47154;BME280;32907;41.412;2.164;2022-12-24T03:03:37;100914.19;;;21.38;43.13
47154;BME280;32907;41.412;2.164;2022-12-24T03:06:42;100889.03;;;21.17;42.86
47154;BME280;32907;41.412;2.164;2022-12-24T03:09:27;100923.28;;;21.34;42.81
47154;BME280;32907;41.412;2.164;2022-12-24T03:12:08;100908.06;;;21.28;43.19
47154;BME280;32907;41.412;2.164;2022-12-24T03:14:39;100898.28;;;21.21;43.02
47154;BME280;32907;41.412;2.164;2022-12-24T03:17:09;100902.09;;;21.20;43.02
47154;BME280;32907;41.412;2.164;2022-12-24T03:19:37;100931.97;;;21.36;42.51
47154;BME280;32907;41.412;2.164;2022-12-24T03:22:08;100896.88;;;21.24;42.47
47154;BME280;32907;41.412;2.164;2022-12-24T03:24:38;100913.78;;;21.26;42.27
47154;BME280;32907;41.412;2.164;2022-12-24T03:27:08;100900.22;;;21.16;42.15
47154;BME280;32907;41.412;2.164;2022-12-24T03:29:39;100920.00;;;21.32;42.39
47154;BME280;32907;41.412;2.164;2022-12-24T03:32:08;100869.38;;;20.97;42.48
47154;BME280;32907;41.412;2.164;2022-12-24T03:34:36;100833.34;;;20.76;42.77
47154;BME280;32907;41.412;2.164;2022-12-24T03:37:04;100855.88;;;20.86;42.80
47154;BME280;32907;41.412;2.164;2022-12-24T03:39:32;100913.50;;;21.28;42.75
47154;BME280;32907;41.412;2.164;2022-12-24T03:42:01;100915.94;;;21.29;42.73
47154;BME280;32907;41.412;2.164;2022-12-24T03:44:29;100866.69;;;20.91;42.75
47154;BME280;32907;41.412;2.164;2022-12-24T03:46:57;100895.38;;;21.13;42.99
47154;BME280;32907;41.412;2.164;2022-12-24T03:49:25;100896.53;;;21.07;42.94
47154;BME280;32907;41.412;2.164;2022-12-24T03:51:52;100917.88;;;21.29;42.53
47154;BME280;32907;41.412;2.164;2022-12-24T03:54:20;100858.00;;;20.89;42.59
47154;BME280;32907;41.412;2.164;2022-12-24T03:56:48;100875.41;;;20.93;42.85
47154;BME280;32907;41.412;2.164;2022-12-24T03:59:16;100869.19;;;20.88;42.44
47154;BME280;32907;41.412;2.164;2022-12-24T04:01:44;100900.16;;;20.97;43.05
47154;BME280;32907;41.412;2.164;2022-12-24T04:04:12;100887.34;;;20.98;42.60
47154;BME280;32907;41.412;2.164;2022-12-24T04:06:40;100916.88;;;21.14;42.83
47154;BME280;32907;41.412;2.164;2022-12-24T04:09:10;100897.84;;;21.09;42.89
47154;BME280;32907;41.412;2.164;2022-12-24T04:11:38;100867.25;;;20.93;43.03
47154;BME280;32907;41.412;2.164;2022-12-24T04:14:05;100861.53;;;20.90;43.14
47154;BME280;32907;41.412;2.164;2022-12-24T04:16:33;100901.13;;;21.11;43.38
47154;BME280;32907;41.412;2.164;2022-12-24T04:19:01;100917.31;;;21.27;43.08
47154;BME280;32907;41.412;2.164;2022-12-24T04:21:29;100861.78;;;20.93;43.02
47154;BME280;32907;41.412;2.164;2022-12-24T04:23:57;100865.53;;;20.98;43.29
47154;BME280;32907;41.412;2.164;2022-12-24T04:26:25;100908.66;;;21.19;43.03
47154;BME280;32907;41.412;2.164;2022-12-24T04:28:53;100867.25;;;20.93;42.87
47154;BME280;32907;41.412;2.164;2022-12-24T04:31:21;100897.59;;;21.11;42.95
47154;BME280;32907;41.412;2.164;2022-12-24T04:33:50;100838.50;;;20.77;43.23
47154;BME280;32907;41.412;2.164;2022-12-24T04:36:19;100920.69;;;21.18;42.89
47154;BME280;32907;41.412;2.164;2022-12-24T04:38:47;100880.88;;;20.93;42.82
47154;BME280;32907;41.412;2.164;2022-12-24T04:41:18;100935.06;;;21.24;42.73
47154;BME280;32907;41.412;2.164;2022-12-24T04:43:52;100942.19;;;21.20;42.78
47154;BME280;32907;41.412;2.164;2022-12-24T04:46:23;100934.03;;;21.20;42.81
47154;BME280;32907;41.412;2.164;2022-12-24T04:48:52;100858.44;;;20.73;42.87
47154;BME280;32907;41.412;2.164;2022-12-24T04:51:21;100943.31;;;21.19;42.64
47154;BME280;32907;41.412;2.164;2022-12-24T04:53:50;100922.13;;;21.11;42.94
47154;BME280;32907;41.412;2.164;2022-12-24T04:56:26;100889.59;;;20.90;42.77
47154;BME280;32907;41.412;2.164;2022-12-24T04:58:55;100892.41;;;20.85;43.20
47154;BME280;32907;41.412;2.164;2022-12-24T05:01:26;100883.69;;;20.83;42.80
47154;BME280;32907;41.412;2.164;2022-12-24T05:03:55;100895.94;;;20.86;43.09
47154;BME280;32907;41.412;2.164;2022-12-24T05:06:29;100839.28;;;20.54;43.02
47154;BME280;32907;41.412;2.164;2022-12-24T05:08:58;100925.72;;;21.06;43.04
47154;BME280;32907;41.412;2.164;2022-12-24T05:11:27;100916.75;;;21.01;43.18
47154;BME280;32907;41.412;2.164;2022-12-24T05:13:55;100841.72;;;20.55;43.28
47154;BME280;32907;41.412;2.164;2022-12-24T05:16:23;100928.63;;;21.15;43.36
47154;BME280;32907;41.412;2.164;2022-12-24T05:18:55;100895.34;;;20.89;43.35
47154;BME280;32907;41.412;2.164;2022-12-24T05:21:24;100924.84;;;21.11;43.36
47154;BME280;32907;41.412;2.164;2022-12-24T05:23:53;100919.41;;;21.11;43.24
47154;BME280;32907;41.412;2.164;2022-12-24T05:26:49;100898.44;;;21.06;43.39
47154;BME280;32907;41.412;2.164;2022-12-24T05:29:18;100857.00;;;20.80;43.28
47154;BME280;32907;41.412;2.164;2022-12-24T05:31:46;100889.44;;;21.06;43.44
47154;BME280;32907;41.412;2.164;2022-12-24T05:34:15;100884.28;;;21.04;43.69
47154;BME280;32907;41.412;2.164;2022-12-24T05:36:44;100860.03;;;20.79;43.28
47154;BME280;32907;41.412;2.164;2022-12-24T05:39:16;100877.59;;;20.91;43.97
47154;BME280;32907;41.412;2.164;2022-12-24T05:41:46;100871.09;;;20.87;43.46
47154;BME280;32907;41.412;2.164;2022-12-24T05:44:14;100898.59;;;20.91;43.82
47154;BME280;32907;41.412;2.164;2022-12-24T05:46:44;100903.75;;;20.92;43.33
47154;BME280;32907;41.412;2.164;2022-12-24T05:49:13;100858.81;;;20.61;43.64
47154;BME280;32907;41.412;2.164;2022-12-24T05:51:41;100900.03;;;20.83;43.95
47154;BME280;32907;41.412;2.164;2022-12-24T05:54:10;100894.06;;;20.81;44.02
47154;BME280;32907;41.412;2.164;2022-12-24T05:56:38;100874.22;;;20.76;44.05
47154;BME280;32907;41.412;2.164;2022-12-24T05:59:06;100892.63;;;20.89;44.14
47154;BME280;32907;41.412;2.164;2022-12-24T06:01:34;100883.34;;;20.90;44.05
47154;BME280;32907;41.412;2.164;2022-12-24T06:04:02;100872.69;;;20.93;44.29
47154;BME280;32907;41.412;2.164;2022-12-24T06:06:31;100880.88;;;20.93;44.40
47154;BME280;32907;41.412;2.164;2022-12-24T06:08:59;100851.09;;;20.73;44.44
47154;BME280;32907;41.412;2.164;2022-12-24T06:11:27;100860.66;;;20.71;44.53
47154;BME280;32907;41.412;2.164;2022-12-24T06:13:56;100812.38;;;20.42;44.37
47154;BME280;32907;41.412;2.164;2022-12-24T06:16:24;100870.84;;;20.84;44.20
47154;BME280;32907;41.412;2.164;2022-12-24T06:18:53;100882.56;;;20.84;44.07
47154;BME280;32907;41.412;2.164;2022-12-24T06:21:22;100780.66;;;20.27;43.84
47154;BME280;32907;41.412;2.164;2022-12-24T06:23:50;100771.38;;;20.28;44.14
47154;BME280;32907;41.412;2.164;2022-12-24T06:26:20;100756.22;;;20.22;44.35
47154;BME280;32907;41.412;2.164;2022-12-24T06:28:49;100852.38;;;20.81;44.23
47154;BME280;32907;41.412;2.164;2022-12-24T06:31:20;100851.50;;;20.85;44.12
47154;BME280;32907;41.412;2.164;2022-12-24T06:33:51;100836.53;;;20.83;44.17
47154;BME280;32907;41.412;2.164;2022-12-24T06:36:22;100845.22;;;20.85;44.28
47154;BME280;32907;41.412;2.164;2022-12-24T06:38:52;100846.06;;;20.85;44.10
47154;BME280;32907;41.412;2.164;2022-12-24T06:41:20;100846.56;;;20.87;44.50
47154;BME280;32907;41.412;2.164;2022-12-24T06:43:51;100842.75;;;20.88;44.19
47154;BME280;32907;41.412;2.164;2022-12-24T06:46:20;100835.69;;;20.87;44.23
47154;BME280;32907;41.412;2.164;2022-12-24T06:48:48;100834.88;;;20.87;44.10
47154;BME280;32907;41.412;2.164;2022-12-24T06:51:17;100805.72;;;20.58;44.12
47154;BME280;32907;41.412;2.164;2022-12-24T06:53:47;100840.03;;;20.88;43.78
47154;BME280;32907;41.412;2.164;2022-12-24T06:56:18;100840.84;;;20.89;44.16
47154;BME280;32907;41.412;2.164;2022-12-24T06:58:46;100828.31;;;20.88;44.34
47154;BME280;32907;41.412;2.164;2022-12-24T07:01:16;100822.91;;;20.83;43.93
47154;BME280;32907;41.412;2.164;2022-12-24T07:03:44;100812.28;;;20.81;44.27
47154;BME280;32907;41.412;2.164;2022-12-24T07:06:25;100815.81;;;20.82;43.89
47154;BME280;32907;41.412;2.164;2022-12-24T07:08:53;100821.56;;;20.80;43.79
47154;BME280;32907;41.412;2.164;2022-12-24T07:11:23;100813.78;;;20.68;44.02
47154;BME280;32907;41.412;2.164;2022-12-24T07:13:51;100814.84;;;20.73;43.73
47154;BME280;32907;41.412;2.164;2022-12-24T07:16:19;100791.88;;;20.55;43.88
47154;BME280;32907;41.412;2.164;2022-12-24T07:18:48;100826.06;;;20.66;43.84
47154;BME280;32907;41.412;2.164;2022-12-24T07:21:16;100855.44;;;20.74;44.16
47154;BME280;32907;41.412;2.164;2022-12-24T07:23:43;100873.88;;;20.82;44.26
47154;BME280;32907;41.412;2.164;2022-12-24T07:26:11;100871.31;;;20.67;44.61
47154;BME280;32907;41.412;2.164;2022-12-24T07:28:39;100891.28;;;20.86;44.33
47154;BME280;32907;41.412;2.164;2022-12-24T07:31:07;100890.19;;;20.87;44.25
47154;BME280;32907;41.412;2.164;2022-12-24T07:33:35;100843.53;;;20.65;43.45
47154;BME280;32907;41.412;2.164;2022-12-24T07:36:06;100898.88;;;20.89;43.50
47154;BME280;32907;41.412;2.164;2022-12-24T07:38:34;100894.88;;;20.82;43.58
47154;BME280;32907;41.412;2.164;2022-12-24T07:41:02;100851.53;;;20.56;43.50
47154;BME280;32907;41.412;2.164;2022-12-24T07:43:31;100903.81;;;20.87;43.53
47154;BME280;32907;41.412;2.164;2022-12-24T07:46:00;100910.09;;;20.88;43.60
47154;BME280;32907;41.412;2.164;2022-12-24T07:48:29;100906.25;;;20.89;43.30
47154;BME280;32907;41.412;2.164;2022-12-24T07:50:57;100917.97;;;20.89;43.87
47154;BME280;32907;41.412;2.164;2022-12-24T07:53:27;100846.41;;;20.50;43.61
47154;BME280;32907;41.412;2.164;2022-12-24T07:55:55;100749.81;;;19.74;43.18
47154;BME280;32907;41.412;2.164;2022-12-24T07:58:23;100927.47;;;20.92;43.63
47154;BME280;32907;41.412;2.164;2022-12-24T08:00:59;100894.97;;;20.72;43.40
47154;BME280;32907;41.412;2.164;2022-12-24T08:03:27;100928.28;;;20.92;43.62
47154;BME280;32907;41.412;2.164;2022-12-24T08:05:55;100839.72;;;20.32;43.77
47154;BME280;32907;41.412;2.164;2022-12-24T08:08:25;100907.50;;;20.73;44.10
47154;BME280;32907;41.412;2.164;2022-12-24T08:10:56;100934.28;;;20.94;43.84
47154;BME280;32907;41.412;2.164;2022-12-24T08:13:26;100871.88;;;20.64;44.00
47154;BME280;32907;41.412;2.164;2022-12-24T08:15:54;100777.66;;;19.95;44.30
47154;BME280;32907;41.412;2.164;2022-12-24T08:18:24;100838.28;;;20.39;44.08
47154;BME280;32907;41.412;2.164;2022-12-24T08:20:55;100893.91;;;20.67;43.97
47154;BME280;32907;41.412;2.164;2022-12-24T08:23:24;100947.81;;;21.05;43.97
47154;BME280;32907;41.412;2.164;2022-12-24T08:25:52;100942.34;;;21.05;44.60
47154;BME280;32907;41.412;2.164;2022-12-24T08:28:20;100942.88;;;21.07;44.43
47154;BME280;32907;41.412;2.164;2022-12-24T08:30:49;100948.31;;;21.07;44.61
47154;BME280;32907;41.412;2.164;2022-12-24T08:33:18;100861.03;;;20.59;44.79
47154;BME280;32907;41.412;2.164;2022-12-24T08:35:48;100890.34;;;20.72;44.50
47154;BME280;32907;41.412;2.164;2022-12-24T08:38:16;100880.00;;;20.69;44.19
47154;BME280;32907;41.412;2.164;2022-12-24T08:40:44;100885.72;;;20.67;44.21
47154;BME280;32907;41.412;2.164;2022-12-24T08:43:16;100949.31;;;21.16;44.34
47154;BME280;32907;41.412;2.164;2022-12-24T08:45:46;100874.16;;;20.52;44.41
47154;BME280;32907;41.412;2.164;2022-12-24T08:48:16;100886.81;;;20.72;44.24
47154;BME280;32907;41.412;2.164;2022-12-24T08:50:44;100755.91;;;19.95;44.35
47154;BME280;32907;41.412;2.164;2022-12-24T08:53:12;100892.44;;;20.80;44.10
47154;BME280;32907;41.412;2.164;2022-12-24T08:55:41;100957.47;;;21.21;43.82
47154;BME280;32907;41.412;2.164;2022-12-24T08:58:09;100823.13;;;20.28;43.66
47154;BME280;32907;41.412;2.164;2022-12-24T09:00:37;100878.34;;;20.73;44.13
47154;BME280;32907;41.412;2.164;2022-12-24T09:03:05;100867.75;;;20.66;43.91
47154;BME280;32907;41.412;2.164;2022-12-24T09:05:33;100965.59;;;21.26;44.27
47154;BME280;32907;41.412;2.164;2022-12-24T09:08:01;100883.75;;;20.78;44.17
47154;BME280;32907;41.412;2.164;2022-12-24T09:10:29;100952.22;;;21.30;44.44
47154;BME280;32907;41.412;2.164;2022-12-24T09:12:56;100974.00;;;21.35;44.50
47154;BME280;32907;41.412;2.164;2022-12-24T09:15:26;100805.94;;;20.33;44.35
47154;BME280;32907;41.412;2.164;2022-12-24T09:17:54;100830.09;;;20.45;44.11
47154;BME280;32907;41.412;2.164;2022-12-24T09:20:26;100837.19;;;20.46;43.75
47154;BME280;32907;41.412;2.164;2022-12-24T09:22:56;100940.63;;;21.14;43.06
47154;BME280;32907;41.412;2.164;2022-12-24T09:25:24;100947.13;;;21.18;43.18
47154;BME280;32907;41.412;2.164;2022-12-24T09:27:53;100926.09;;;20.94;43.46
47154;BME280;32907;41.412;2.164;2022-12-24T09:30:21;100876.41;;;20.74;43.47
47154;BME280;32907;41.412;2.164;2022-12-24T09:32:50;100909.50;;;20.91;43.03
47154;BME280;32907;41.412;2.164;2022-12-24T09:35:18;100922.78;;;20.98;42.72
47154;BME280;32907;41.412;2.164;2022-12-24T09:37:48;100969.34;;;21.35;42.78
47154;BME280;32907;41.412;2.164;2022-12-24T09:40:37;100964.13;;;21.39;43.59
47154;BME280;32907;41.412;2.164;2022-12-24T09:43:14;100984.53;;;21.41;43.92
47154;BME280;32907;41.412;2.164;2022-12-24T09:48:49;100961.22;;;21.25;43.30
47154;BME280;32907;41.412;2.164;2022-12-24T09:51:28;100997.09;;;21.42;43.31
47154;BME280;32907;41.412;2.164;2022-12-24T09:54:12;100807.97;;;20.17;43.06
47154;BME280;32907;41.412;2.164;2022-12-24T09:56:44;100999.84;;;21.42;42.68
47154;BME280;32907;41.412;2.164;2022-12-24T09:59:16;100985.91;;;21.44;42.49
47154;BME280;32907;41.412;2.164;2022-12-24T10:01:44;100974.59;;;21.27;42.32
47154;BME280;32907;41.412;2.164;2022-12-24T10:04:15;100894.53;;;20.88;42.57
47154;BME280;32907;41.412;2.164;2022-12-24T10:06:49;100994.31;;;21.47;42.26
47154;BME280;32907;41.412;2.164;2022-12-24T10:15:19;100982.81;;;21.50;41.13
47154;BME280;32907;41.412;2.164;2022-12-24T10:23:16;100966.91;;;21.58;42.29
47154;BME280;32907;41.412;2.164;2022-12-24T10:26:01;100969.34;;;21.59;42.25
47154;BME280;32907;41.412;2.164;2022-12-24T10:31:06;100929.97;;;21.41;43.14
47154;BME280;32907;41.412;2.164;2022-12-24T10:33:46;100916.34;;;21.41;44.43
47154;BME280;32907;41.412;2.164;2022-12-24T10:36:18;100972.13;;;21.78;44.13
47154;BME280;32907;41.412;2.164;2022-12-24T10:38:48;100972.63;;;21.80;43.99
47154;BME280;32907;41.412;2.164;2022-12-24T10:41:16;100967.94;;;21.86;43.65
47154;BME280;32907;41.412;2.164;2022-12-24T10:43:44;100881.75;;;21.37;43.74
47154;BME280;32907;41.412;2.164;2022-12-24T10:46:30;100962.97;;;21.88;43.92
47154;BME280;32907;41.412;2.164;2022-12-24T10:49:02;100919.44;;;21.59;43.87
47154;BME280;32907;41.412;2.164;2022-12-24T10:51:54;100955.69;;;21.83;43.13
47154;BME280;32907;41.412;2.164;2022-12-24T10:54:26;100918.31;;;21.60;43.04
47154;BME280;32907;41.412;2.164;2022-12-24T10:57:00;100947.25;;;21.79;42.14
47154;BME280;32907;41.412;2.164;2022-12-24T11:02:32;100925.34;;;21.66;44.99
47154;BME280;32907;41.412;2.164;2022-12-24T11:05:09;100930.06;;;21.79;45.18
47154;BME280;32907;41.412;2.164;2022-12-24T11:08:16;100940.84;;;21.89;45.48
47154;BME280;32907;41.412;2.164;2022-12-24T11:11:08;100931.41;;;22.00;44.75
47154;BME280;32907;41.412;2.164;2022-12-24T11:13:54;100885.06;;;21.76;44.23
47154;BME280;32907;41.412;2.164;2022-12-24T11:16:31;100917.63;;;21.92;43.72
47154;BME280;32907;41.412;2.164;2022-12-24T11:19:02;100921.91;;;21.98;43.70
47154;BME280;32907;41.412;2.164;2022-12-24T11:21:37;100918.34;;;21.97;43.57
47154;BME280;32907;41.412;2.164;2022-12-24T11:24:12;100917.81;;;21.95;43.38
47154;BME280;32907;41.412;2.164;2022-12-24T11:26:46;100883.66;;;21.79;42.89
47154;BME280;32907;41.412;2.164;2022-12-24T11:31:44;100895.97;;;21.95;42.45
47154;BME280;32907;41.412;2.164;2022-12-24T11:36:53;100892.13;;;21.96;42.68
47154;BME280;32907;41.412;2.164;2022-12-24T11:39:24;100839.06;;;21.46;42.11
47154;BME280;32907;41.412;2.164;2022-12-24T11:41:52;100881.53;;;21.95;41.97
47154;BME280;32907;41.412;2.164;2022-12-24T11:44:26;100816.09;;;21.52;41.26
47154;BME280;32907;41.412;2.164;2022-12-24T11:46:54;100860.13;;;21.83;42.17
47154;BME280;32907;41.412;2.164;2022-12-24T11:49:28;100870.59;;;21.95;43.42
47154;BME280;32907;41.412;2.164;2022-12-24T11:57:14;100848.44;;;21.96;41.40
47154;BME280;32907;41.412;2.164;2022-12-24T11:59:46;100835.47;;;21.88;40.85
47154;BME280;32907;41.412;2.164;2022-12-24T12:02:26;100851.13;;;22.01;40.63
47154;BME280;32907;41.412;2.164;2022-12-24T12:05:15;100852.72;;;22.02;40.10
47154;BME280;32907;41.412;2.164;2022-12-24T12:07:46;100858.19;;;22.02;40.14
47154;BME280;32907;41.412;2.164;2022-12-24T12:10:23;100836.16;;;21.99;39.67
47154;BME280;32907;41.412;2.164;2022-12-24T12:13:02;100843.44;;;22.03;39.98
47154;BME280;32907;41.412;2.164;2022-12-24T12:15:38;100832.88;;;21.97;40.31
47154;BME280;32907;41.412;2.164;2022-12-24T12:18:14;100789.53;;;21.58;39.03
47154;BME280;32907;41.412;2.164;2022-12-24T12:20:59;100830.56;;;21.90;39.32
47154;BME280;32907;41.412;2.164;2022-12-24T12:23:39;100847.28;;;22.02;39.18
47154;BME280;32907;41.412;2.164;2022-12-24T12:29:12;100797.41;;;21.78;39.76
47154;BME280;32907;41.412;2.164;2022-12-24T12:31:48;100840.66;;;22.09;40.00
47154;BME280;32907;41.412;2.164;2022-12-24T12:34:38;100827.50;;;22.11;40.29
47154;BME280;32907;41.412;2.164;2022-12-24T12:37:13;100831.88;;;22.12;39.93
47154;BME280;32907;41.412;2.164;2022-12-24T12:39:41;100820.63;;;22.13;40.11
47154;BME280;32907;41.412;2.164;2022-12-24T12:42:32;100819.25;;;22.16;40.48
47154;BME280;32907;41.412;2.164;2022-12-24T12:47:59;100812.16;;;22.15;40.94
47154;BME280;32907;41.412;2.164;2022-12-24T12:50:52;100810.25;;;22.15;41.35
47154;BME280;32907;41.412;2.164;2022-12-24T12:53:27;100802.06;;;22.15;41.94
47154;BME280;32907;41.412;2.164;2022-12-24T12:56:21;100810.75;;;22.17;43.00
47154;BME280;32907;41.412;2.164;2022-12-24T12:59:01;100801.75;;;22.17;43.22
47154;BME280;32907;41.412;2.164;2022-12-24T13:04:26;100788.66;;;22.14;42.80
47154;BME280;32907;41.412;2.164;2022-12-24T13:20:48;100778.97;;;22.08;43.42
47154;BME280;32907;41.412;2.164;2022-12-24T13:23:19;100716.72;;;21.72;43.54
47154;BME280;32907;41.412;2.164;2022-12-24T13:25:51;100774.00;;;22.10;43.64
47154;BME280;32907;41.412;2.164;2022-12-24T13:30:53;100734.56;;;21.83;43.70
47154;BME280;32907;41.412;2.164;2022-12-24T13:36:11;100727.69;;;21.86;44.24
47154;BME280;32907;41.412;2.164;2022-12-24T13:49:43;100761.75;;;22.07;44.55
47154;BME280;32907;41.412;2.164;2022-12-24T13:54:46;100760.94;;;22.06;44.67
47154;BME280;32907;41.412;2.164;2022-12-24T13:57:35;100756.28;;;22.07;45.42
47154;BME280;32907;41.412;2.164;2022-12-24T14:02:52;100743.16;;;22.09;45.94
47154;BME280;32907;41.412;2.164;2022-12-24T14:08:07;100702.81;;;21.87;46.26
47154;BME280;32907;41.412;2.164;2022-12-24T14:10:56;100714.66;;;21.96;45.58
47154;BME280;32907;41.412;2.164;2022-12-24T14:16:23;100738.94;;;22.17;44.64
47154;BME280;32907;41.412;2.164;2022-12-24T14:19:19;100708.63;;;21.99;44.89
47154;BME280;32907;41.412;2.164;2022-12-24T14:21:56;100739.50;;;22.14;44.76
47154;BME280;32907;41.412;2.164;2022-12-24T14:24:32;100731.84;;;22.16;44.48
47154;BME280;32907;41.412;2.164;2022-12-24T14:27:20;100732.34;;;22.18;44.38
47154;BME280;32907;41.412;2.164;2022-12-24T14:32:39;100728.50;;;22.19;44.53
47154;BME280;32907;41.412;2.164;2022-12-24T14:35:15;100700.84;;;22.06;44.55
47154;BME280;32907;41.412;2.164;2022-12-24T14:37:48;100676.13;;;21.84;44.29
47154;BME280;32907;41.412;2.164;2022-12-24T14:40:20;100654.47;;;21.74;44.47
47154;BME280;32907;41.412;2.164;2022-12-24T14:45:57;100735.00;;;22.23;44.94
47154;BME280;32907;41.412;2.164;2022-12-24T14:48:52;100730.34;;;22.23;45.43
47154;BME280;32907;41.412;2.164;2022-12-24T14:51:31;100725.38;;;22.25;45.64
47154;BME280;32907;41.412;2.164;2022-12-24T14:57:25;100699.66;;;22.13;45.86
47154;BME280;32907;41.412;2.164;2022-12-24T14:59:58;100695.81;;;22.14;45.49
47154;BME280;32907;41.412;2.164;2022-12-24T15:02:41;100692.13;;;22.04;45.37
47154;BME280;32907;41.412;2.164;2022-12-24T15:05:23;100721.75;;;22.30;46.10
47154;BME280;32907;41.412;2.164;2022-12-24T15:07:58;100728.22;;;22.34;45.84
47154;BME280;32907;41.412;2.164;2022-12-24T15:10:38;100721.34;;;22.23;45.75
47154;BME280;32907;41.412;2.164;2022-12-24T15:13:38;100727.59;;;22.37;45.90